Time;durP1;ratioP1;P1;durP2;ratioP2;P2;SDS_P1;SDS_P2;PMS_P1;PMS_P2;Temp;Humidity;BMP_temperature;BMP_pressure;BME280_temperature;BME280_humidity;BME280_pressure;Samples;Min_cycle;Max_cycle;Signal;HPM_P1;HPM_P2
2022/08/17 00:01:39;;;;;;;;;;;19.10;99.90;;;;;;4227962;28;20351;-62
2022/08/17 00:03:41;;;;;;;;;;;19.00;99.90;;;;;;4229003;28;19912;-62
2022/08/17 00:05:47;;;;;;;;;;;19.00;99.90;;;;;;4228290;28;19908;-62
2022/08/17 00:07:48;;;;;;;;;;;18.90;99.90;;;;;;4228748;28;20325;-62
2022/08/17 00:09:49;;;;;;;;;;;18.90;99.90;;;;;;4227644;28;19903;-63
2022/08/17 00:11:50;;;;;;;;;;;18.80;99.90;;;;;;4228995;28;19910;-63
2022/08/17 00:13:53;;;;;;;;;;;18.80;99.90;;;;;;4227854;28;19915;-62
2022/08/17 00:15:57;;;;;;;;;;;18.80;99.90;;;;;;4228930;28;19907;-63
2022/08/17 00:17:58;;;;;;;;;;;18.70;99.90;;;;;;4227709;28;19903;-63
2022/08/17 00:19:59;;;;;;;;;;;18.70;99.90;;;;;;4228534;28;19911;-63
2022/08/17 00:22:01;;;;;;;;;;;18.60;99.90;;;;;;4227414;28;19915;-63
2022/08/17 00:24:02;;;;;;;;;;;18.60;99.90;;;;;;4226920;28;19915;-64
2022/08/17 00:26:03;;;;;;;;;;;18.60;99.90;;;;;;4227696;28;19977;-63
2022/08/17 00:28:05;;;;;;;;;;;18.60;99.90;;;;;;4228003;28;19907;-63
2022/08/17 00:30:07;;;;;;;;;;;18.60;99.90;;;;;;4228462;28;20649;-63
2022/08/17 00:32:09;;;;;;;;;;;18.60;99.90;;;;;;4227570;28;19978;-62
2022/08/17 00:34:10;;;;;;;;;;;18.60;99.90;;;;;;4229015;28;20360;-63
2022/08/17 00:36:11;;;;;;;;;;;18.60;99.90;;;;;;4227544;28;19911;-63
2022/08/17 00:38:12;;;;;;;;;;;18.60;99.90;;;;;;4228825;28;19948;-63
2022/08/17 00:40:14;;;;;;;;;;;18.60;99.90;;;;;;4230867;28;20462;-62
2022/08/17 00:42:16;;;;;;;;;;;18.50;99.90;;;;;;4232179;28;19961;-63
2022/08/17 00:44:17;;;;;;;;;;;18.50;99.90;;;;;;4230828;28;19915;-61
2022/08/17 00:46:20;;;;;;;;;;;18.60;99.90;;;;;;4231904;28;19903;-62
2022/08/17 00:48:21;;;;;;;;;;;18.60;99.90;;;;;;4230894;28;19908;-62
2022/08/17 00:50:22;;;;;;;;;;;18.60;99.90;;;;;;4232036;28;19912;-63
2022/08/17 00:52:27;;;;;;;;;;;18.60;99.90;;;;;;4230766;28;19943;-62
2022/08/17 00:54:29;;;;;;;;;;;18.60;99.90;;;;;;4231508;28;19912;-63
2022/08/17 00:56:32;;;;;;;;;;;18.60;99.90;;;;;;4230951;28;19949;-63
2022/08/17 00:58:34;;;;;;;;;;;18.60;99.90;;;;;;4231296;28;19916;-62
2022/08/17 01:00:36;;;;;;;;;;;18.50;99.90;;;;;;4231209;28;19957;-63
2022/08/17 01:02:39;;;;;;;;;;;18.50;99.90;;;;;;4231082;27;19903;-62
2022/08/17 01:04:42;;;;;;;;;;;18.50;99.90;;;;;;4231840;28;19904;-63
2022/08/17 01:06:45;;;;;;;;;;;18.50;99.90;;;;;;4230461;28;19904;-63
2022/08/17 01:08:46;;;;;;;;;;;18.50;99.90;;;;;;4231594;28;19908;-62
2022/08/17 01:10:49;;;;;;;;;;;18.50;99.90;;;;;;4230533;28;20006;-62
2022/08/17 01:12:50;;;;;;;;;;;18.50;99.90;;;;;;4230086;28;19949;-61
2022/08/17 01:14:51;;;;;;;;;;;18.50;99.90;;;;;;4230505;28;19904;-63
2022/08/17 01:16:53;;;;;;;;;;;18.50;99.90;;;;;;4231545;28;19911;-63
2022/08/17 01:18:56;;;;;;;;;;;18.50;99.90;;;;;;4230428;28;20416;-63
2022/08/17 01:21:01;;;;;;;;;;;18.60;99.90;;;;;;4231482;28;20363;-63
2022/08/17 01:23:02;;;;;;;;;;;18.60;99.90;;;;;;4230262;28;19961;-63
2022/08/17 01:25:06;;;;;;;;;;;18.60;99.90;;;;;;4231460;28;20276;-63
2022/08/17 01:27:09;;;;;;;;;;;18.50;99.90;;;;;;4230343;28;20004;-63
2022/08/17 01:29:10;;;;;;;;;;;18.50;99.90;;;;;;4231225;28;19949;-63
2022/08/17 01:31:11;;;;;;;;;;;18.50;99.90;;;;;;4230356;28;19899;-63
2022/08/17 01:33:12;;;;;;;;;;;18.40;99.90;;;;;;4230790;28;19934;-63
2022/08/17 01:35:13;;;;;;;;;;;18.40;99.90;;;;;;4231097;28;19931;-63
2022/08/17 01:37:14;;;;;;;;;;;18.40;99.90;;;;;;4230217;28;19965;-64
2022/08/17 01:39:21;;;;;;;;;;;18.40;99.90;;;;;;4230970;28;19911;-63
2022/08/17 01:41:23;;;;;;;;;;;18.30;99.90;;;;;;4230480;28;19908;-63
2022/08/17 01:43:27;;;;;;;;;;;18.30;99.90;;;;;;4231069;28;19911;-63
2022/08/17 01:45:30;;;;;;;;;;;18.40;99.90;;;;;;4230022;28;19915;-63
2022/08/17 01:47:31;;;;;;;;;;;18.30;99.90;;;;;;4231246;28;19949;-63
2022/08/17 01:49:33;;;;;;;;;;;18.30;99.90;;;;;;4229933;28;19908;-63
2022/08/17 01:51:33;;;;;;;;;;;18.30;99.90;;;;;;4229793;28;19937;-63
2022/08/17 01:53:38;;;;;;;;;;;18.30;99.90;;;;;;4229621;28;19914;-63
2022/08/17 01:55:41;;;;;;;;;;;18.20;99.90;;;;;;4231225;28;19961;-63
2022/08/17 01:57:44;;;;;;;;;;;18.20;99.90;;;;;;4229762;28;19904;-63
2022/08/17 01:59:45;;;;;;;;;;;18.20;99.90;;;;;;4230843;28;20316;-62
2022/08/17 02:01:46;;;;;;;;;;;18.10;99.90;;;;;;4229723;28;19904;-63
2022/08/17 02:03:47;;;;;;;;;;;18.00;99.90;;;;;;4230114;27;19969;-63
2022/08/17 02:05:48;;;;;;;;;;;18.00;99.90;;;;;;4230398;28;20283;-63
2022/08/17 02:07:49;;;;;;;;;;;18.00;99.90;;;;;;4230325;28;19973;-63
2022/08/17 02:09:50;;;;;;;;;;;17.90;99.90;;;;;;4230173;28;19953;-63
2022/08/17 02:11:51;;;;;;;;;;;17.90;99.90;;;;;;4229817;27;19904;-63
2022/08/17 02:13:52;;;;;;;;;;;17.90;99.90;;;;;;4229959;28;19907;-63
2022/08/17 02:15:53;;;;;;;;;;;17.80;99.90;;;;;;4229310;28;19949;-63
2022/08/17 02:17:54;;;;;;;;;;;17.80;99.90;;;;;;4230600;28;19931;-63
2022/08/17 02:19:54;;;;;;;;;;;17.80;99.90;;;;;;4229527;28;19904;-63
2022/08/17 02:21:55;;;;;;;;;;;17.80;99.90;;;;;;4230336;28;19915;-64
2022/08/17 02:23:56;;;;;;;;;;;17.80;99.90;;;;;;4229241;28;19955;-64
2022/08/17 02:25:58;;;;;;;;;;;17.80;99.90;;;;;;4230529;28;19904;-62
2022/08/17 02:27:59;;;;;;;;;;;17.80;99.90;;;;;;4229376;28;19996;-62
2022/08/17 02:30:01;;;;;;;;;;;17.80;99.90;;;;;;4230269;28;19907;-62
2022/08/17 02:32:03;;;;;;;;;;;17.80;99.90;;;;;;4229271;28;20306;-63
2022/08/17 02:34:05;;;;;;;;;;;17.80;99.90;;;;;;4228761;28;20488;-63
2022/08/17 02:36:07;;;;;;;;;;;17.80;99.90;;;;;;4229494;28;19937;-62
2022/08/17 02:38:08;;;;;;;;;;;17.80;99.90;;;;;;4229768;28;19953;-62
2022/08/17 02:40:10;;;;;;;;;;;17.80;99.90;;;;;;4229469;28;19953;-62
2022/08/17 02:42:12;;;;;;;;;;;17.80;99.90;;;;;;4229479;27;20298;-62
2022/08/17 02:44:13;;;;;;;;;;;17.80;99.90;;;;;;4229554;28;19912;-62
2022/08/17 02:46:14;;;;;;;;;;;17.80;99.90;;;;;;4229314;28;19910;-63
2022/08/17 02:48:15;;;;;;;;;;;17.70;99.90;;;;;;4230029;28;19907;-62
2022/08/17 02:50:17;;;;;;;;;;;17.70;99.90;;;;;;4228581;27;19915;-62
2022/08/17 02:52:18;;;;;;;;;;;17.70;99.90;;;;;;4229945;28;19904;-62
2022/08/17 02:54:19;;;;;;;;;;;17.70;99.90;;;;;;4228829;28;19904;-62
2022/08/17 02:56:20;;;;;;;;;;;17.70;99.90;;;;;;4229900;28;19939;-63
2022/08/17 02:58:21;;;;;;;;;;;17.70;99.90;;;;;;4228531;28;19903;-63
2022/08/17 03:00:25;;;;;;;;;;;17.70;99.90;;;;;;4229868;28;19914;-62
2022/08/17 03:02:26;;;;;;;;;;;17.70;99.90;;;;;;4228366;28;20434;-63
2022/08/17 03:04:27;;;;;;;;;;;17.60;99.90;;;;;;4230038;28;19965;-63
2022/08/17 03:06:29;;;;;;;;;;;17.60;99.90;;;;;;4227400;28;19915;-63
2022/08/17 03:08:30;;;;;;;;;;;17.60;99.90;;;;;;4229129;28;19911;-62
2022/08/17 03:10:31;;;;;;;;;;;17.60;99.90;;;;;;4228859;28;19949;-63
2022/08/17 03:12:33;;;;;;;;;;;17.60;99.90;;;;;;4228958;28;19961;-63
2022/08/17 03:14:38;;;;;;;;;;;17.60;99.90;;;;;;4229171;28;20347;-63
2022/08/17 03:16:39;;;;;;;;;;;17.50;99.90;;;;;;4228792;28;19949;-63
2022/08/17 03:18:40;;;;;;;;;;;17.50;99.90;;;;;;4229318;28;19966;-62
2022/08/17 03:20:41;;;;;;;;;;;17.50;99.90;;;;;;4228485;28;19911;-63
2022/08/17 03:22:44;;;;;;;;;;;17.40;99.90;;;;;;4229170;28;19945;-63
2022/08/17 03:24:45;;;;;;;;;;;17.40;99.90;;;;;;4228168;28;20288;-62
2022/08/17 03:26:45;;;;;;;;;;;17.40;99.90;;;;;;4229558;28;20367;-62
2022/08/17 03:28:46;;;;;;;;;;;17.40;99.90;;;;;;4228397;28;19922;-62
2022/08/17 03:30:48;;;;;;;;;;;17.30;99.90;;;;;;4229441;28;19912;-62
2022/08/17 03:32:50;;;;;;;;;;;17.30;99.90;;;;;;4228150;28;20317;-62
2022/08/17 03:34:56;;;;;;;;;;;17.20;99.90;;;;;;4229249;28;20329;-62
2022/08/17 03:36:56;;;;;;;;;;;17.20;99.90;;;;;;4227954;28;19937;-62
2022/08/17 03:38:57;;;;;;;;;;;17.20;99.90;;;;;;4229110;28;19907;-62
2022/08/17 03:40:58;;;;;;;;;;;17.20;99.90;;;;;;4228171;28;19945;-62
2022/08/17 03:43:06;;;;;;;;;;;17.20;99.90;;;;;;4228417;28;19914;-63
2022/08/17 03:45:10;;;;;;;;;;;17.10;99.90;;;;;;4228177;28;19908;-63
2022/08/17 03:56:51;;;;;;;;;;;17.20;99.90;;;;;;4228836;28;19957;-63
2022/08/17 03:58:51;;;;;;;;;;;17.30;99.90;;;;;;4227352;28;19972;-63
2022/08/17 04:00:52;;;;;;;;;;;17.50;99.90;;;;;;4228745;28;19903;-63
2022/08/17 04:02:53;;;;;;;;;;;17.60;99.90;;;;;;4227424;28;19952;-61
2022/08/17 04:04:54;;;;;;;;;;;17.70;99.90;;;;;;4229151;28;19933;-62
2022/08/17 04:06:55;;;;;;;;;;;17.90;99.90;;;;;;4227725;28;19911;-62
2022/08/17 04:08:56;;;;;;;;;;;18.00;99.90;;;;;;4228405;28;19903;-61
2022/08/17 04:10:57;;;;;;;;;;;18.00;99.90;;;;;;4226694;28;19973;-64
2022/08/17 04:12:58;;;;;;;;;;;18.10;99.90;;;;;;4227592;27;20044;-62
2022/08/17 04:14:59;;;;;;;;;;;18.20;99.90;;;;;;4227658;28;19969;-61
2022/08/17 04:17:00;;;;;;;;;;;18.20;99.90;;;;;;4227393;28;19907;-62
2022/08/17 04:19:01;;;;;;;;;;;18.20;99.90;;;;;;4228432;28;20985;-62
2022/08/17 04:21:02;;;;;;;;;;;18.20;99.90;;;;;;4227702;28;20416;-63
2022/08/17 04:23:05;;;;;;;;;;;18.10;99.90;;;;;;4228442;28;19986;-62
2022/08/17 04:25:08;;;;;;;;;;;18.10;99.90;;;;;;4227275;28;19904;-63
2022/08/17 04:27:09;;;;;;;;;;;17.90;99.90;;;;;;4228208;28;19904;-62
2022/08/17 04:29:10;;;;;;;;;;;17.90;99.90;;;;;;4227500;28;19910;-62
2022/08/17 04:31:11;;;;;;;;;;;17.80;99.90;;;;;;4225264;28;20030;-62
2022/08/17 04:33:15;;;;;;;;;;;17.80;99.90;;;;;;4210476;28;19904;-62
2022/08/17 04:35:17;;;;;;;;;;;17.80;99.90;;;;;;4211764;28;19908;-62
2022/08/17 04:37:18;;;;;;;;;;;17.90;99.90;;;;;;4210613;28;19977;-62
2022/08/17 04:39:19;;;;;;;;;;;17.90;99.90;;;;;;4211330;28;19904;-62
2022/08/17 04:43:40;;;;;;;;;;;18.00;99.90;;;;;;4211390;28;19981;-62
2022/08/17 04:45:43;;;;;;;;;;;18.20;99.90;;;;;;4210591;28;19908;-62
2022/08/17 04:47:44;;;;;;;;;;;18.50;99.90;;;;;;4210541;28;20383;-63
2022/08/17 04:49:45;;;;;;;;;;;18.70;99.90;;;;;;4224933;28;19933;-62
2022/08/17 04:51:46;;;;;;;;;;;19.20;99.90;;;;;;4228036;28;20425;-62
2022/08/17 04:53:48;;;;;;;;;;;19.40;99.90;;;;;;4228168;28;20317;-64
2022/08/17 04:55:53;;;;;;;;;;;19.50;99.90;;;;;;4227533;28;19968;-63
2022/08/17 04:57:54;;;;;;;;;;;19.50;99.90;;;;;;4228162;28;19911;-63
2022/08/17 04:59:55;;;;;;;;;;;19.40;99.90;;;;;;4227087;28;19908;-62
2022/08/17 05:01:56;;;;;;;;;;;19.20;99.90;;;;;;4228311;28;19949;-62
2022/08/17 05:03:58;;;;;;;;;;;19.20;99.90;;;;;;4226990;28;19918;-62
2022/08/17 05:05:59;;;;;;;;;;;19.20;99.90;;;;;;4228268;28;20280;-63
2022/08/17 05:08:01;;;;;;;;;;;19.30;99.90;;;;;;4227066;28;19912;-64
2022/08/17 05:10:03;;;;;;;;;;;19.40;99.90;;;;;;4227750;28;19903;-62
2022/08/17 05:12:05;;;;;;;;;;;19.40;99.90;;;;;;4225209;28;19904;-61
2022/08/17 05:14:05;;;;;;;;;;;19.40;99.90;;;;;;4228208;28;20339;-62
2022/08/17 05:16:07;;;;;;;;;;;19.50;99.90;;;;;;4227050;28;19923;-63
2022/08/17 05:18:09;;;;;;;;;;;19.50;99.90;;;;;;4227452;28;20377;-62
2022/08/17 05:20:10;;;;;;;;;;;19.60;99.90;;;;;;4227020;28;19993;-63
2022/08/17 05:22:12;;;;;;;;;;;19.50;99.90;;;;;;4226717;28;19916;-64
2022/08/17 05:24:13;;;;;;;;;;;19.50;99.90;;;;;;4227552;28;19916;-62
2022/08/17 05:26:16;;;;;;;;;;;19.50;99.90;;;;;;4230215;28;19948;-63
2022/08/17 05:28:18;;;;;;;;;;;19.50;99.90;;;;;;4230895;28;19907;-63
2022/08/17 05:30:20;;;;;;;;;;;19.40;99.90;;;;;;4229979;28;19912;-61
2022/08/17 05:32:22;;;;;;;;;;;19.40;99.90;;;;;;4230772;28;19912;-62
2022/08/17 05:34:23;;;;;;;;;;;19.40;99.90;;;;;;4229473;28;19964;-62
2022/08/17 05:36:24;;;;;;;;;;;19.40;99.90;;;;;;4230605;28;19903;-62
2022/08/17 05:38:26;;;;;;;;;;;19.30;99.90;;;;;;4229771;28;19907;-62
2022/08/17 05:40:27;;;;;;;;;;;19.30;99.90;;;;;;4230641;28;20260;-62
2022/08/17 05:42:28;;;;;;;;;;;19.30;99.90;;;;;;4229859;28;19923;-62
2022/08/17 05:44:29;;;;;;;;;;;19.20;99.90;;;;;;4231248;28;19919;-62
2022/08/17 05:46:33;;;;;;;;;;;19.20;99.90;;;;;;4229570;28;19904;-63
2022/08/17 05:48:36;;;;;;;;;;;19.20;99.90;;;;;;4230505;28;20305;-63
2022/08/17 05:50:48;;;;;;;;;;;19.20;99.90;;;;;;4229721;28;19904;-63
2022/08/17 05:53:09;;;;;;;;;;;19.30;99.90;;;;;;4230300;28;19976;-62
2022/08/17 05:55:10;;;;;;;;;;;19.40;99.90;;;;;;4229037;28;19953;-62
2022/08/17 05:57:11;;;;;;;;;;;19.40;99.90;;;;;;4230400;28;20294;-63
2022/08/17 05:59:12;;;;;;;;;;;19.40;99.90;;;;;;4229770;28;19914;-64
2022/08/17 06:01:23;;;;;;;;;;;19.50;99.90;;;;;;4230212;28;19914;-64
2022/08/17 06:03:33;;;;;;;;;;;19.60;99.90;;;;;;4229883;28;19960;-62
2022/08/17 06:05:34;;;;;;;;;;;19.70;99.90;;;;;;4230167;28;19952;-62
2022/08/17 06:07:38;;;;;;;;;;;19.80;99.90;;;;;;4229829;28;20010;-62
2022/08/17 06:09:41;;;;;;;;;;;20.00;99.90;;;;;;4229520;28;19911;-62
2022/08/17 06:11:45;;;;;;;;;;;20.10;99.90;;;;;;4230278;28;20302;-64
2022/08/17 06:13:46;;;;;;;;;;;20.20;99.90;;;;;;4229903;28;20444;-63
2022/08/17 06:15:54;;;;;;;;;;;20.40;99.90;;;;;;4230051;28;19904;-65
2022/08/17 06:17:57;;;;;;;;;;;20.70;99.90;;;;;;4229216;28;19904;-62
2022/08/17 06:20:01;;;;;;;;;;;21.10;99.90;;;;;;4229468;27;19961;-62
2022/08/17 06:22:04;;;;;;;;;;;21.80;99.90;;;;;;4228902;28;19923;-63
2022/08/17 06:24:14;;;;;;;;;;;22.40;99.90;;;;;;4230166;28;19957;-63
2022/08/17 06:26:21;;;;;;;;;;;23.20;99.90;;;;;;4228748;28;20385;-62
2022/08/17 06:28:29;;;;;;;;;;;23.70;99.90;;;;;;4230291;28;19912;-63
2022/08/17 06:30:36;;;;;;;;;;;24.40;99.90;;;;;;4229166;28;19908;-62
2022/08/17 06:32:41;;;;;;;;;;;24.80;99.90;;;;;;4228824;28;19904;-62
2022/08/17 06:34:43;;;;;;;;;;;25.50;99.90;;;;;;4229034;28;19937;-64
2022/08/17 06:36:50;;;;;;;;;;;26.30;99.90;;;;;;4228955;27;19912;-62
2022/08/17 06:38:54;;;;;;;;;;;26.60;99.90;;;;;;4228985;28;19908;-63
2022/08/17 06:41:11;;;;;;;;;;;26.60;99.90;;;;;;4229847;28;19904;-63
2022/08/17 06:43:31;;;;;;;;;;;27.00;99.90;;;;;;4228816;28;19907;-64
2022/08/17 06:45:42;;;;;;;;;;;27.40;99.90;;;;;;4230080;28;20005;-62
2022/08/17 06:47:57;;;;;;;;;;;27.50;99.90;;;;;;4228559;28;20380;-65
2022/08/17 06:50:04;;;;;;;;;;;27.50;99.90;;;;;;4230006;28;19957;-62
2022/08/17 06:52:05;;;;;;;;;;;27.70;99.90;;;;;;4228218;28;19903;-62
2022/08/17 06:54:12;;;;;;;;;;;28.00;99.90;;;;;;4229632;28;19979;-66
2022/08/17 06:56:20;;;;;;;;;;;28.60;99.90;;;;;;4228660;28;19903;-63
2022/08/17 06:58:22;;;;;;;;;;;29.00;99.50;;;;;;4229857;28;19949;-63
2022/08/17 07:00:26;;;;;;;;;;;29.40;98.80;;;;;;4228631;28;19949;-63
2022/08/17 07:02:35;;;;;;;;;;;29.70;98.10;;;;;;4229662;28;19911;-64
2022/08/17 07:04:36;;;;;;;;;;;29.70;97.60;;;;;;4228512;28;20409;-63
2022/08/17 07:06:50;;;;;;;;;;;29.60;97.60;;;;;;4229134;28;19964;-64
2022/08/17 07:08:51;;;;;;;;;;;29.60;97.30;;;;;;4228279;28;19904;-63
2022/08/17 07:10:55;;;;;;;;;;;29.50;97.10;;;;;;4229524;28;19955;-63
2022/08/17 07:12:59;;;;;;;;;;;29.30;97.10;;;;;;4228293;28;19908;-64
2022/08/17 07:15:19;;;;;;;;;;;29.20;97.40;;;;;;4229337;28;19911;-64
2022/08/17 07:17:20;;;;;;;;;;;28.70;97.40;;;;;;4228199;28;19903;-63
2022/08/17 07:19:23;;;;;;;;;;;28.30;99.10;;;;;;4229097;28;19907;-62
2022/08/17 07:21:42;;;;;;;;;;;28.00;98.40;;;;;;4228130;28;19904;-62
2022/08/17 07:24:06;;;;;;;;;;;27.40;99.20;;;;;;4227355;28;19903;-63
2022/08/17 07:26:08;;;;;;;;;;;27.00;99.80;;;;;;4215824;28;20004;-62
2022/08/17 07:28:09;;;;;;;;;;;26.90;99.90;;;;;;4229005;28;19907;-65
2022/08/17 07:30:15;;;;;;;;;;;27.00;99.90;;;;;;4228272;28;19951;-62
2022/08/17 07:32:19;;;;;;;;;;;27.10;99.90;;;;;;4228762;28;19960;-62
2022/08/17 07:34:20;;;;;;;;;;;27.20;99.90;;;;;;4228372;28;20254;-63
2022/08/17 07:36:25;;;;;;;;;;;27.30;99.90;;;;;;4228657;28;19960;-63
2022/08/17 07:38:27;;;;;;;;;;;27.50;99.90;;;;;;4228484;28;19937;-62
2022/08/17 07:40:32;;;;;;;;;;;27.70;99.90;;;;;;4228421;28;20415;-64
2022/08/17 07:42:33;;;;;;;;;;;27.70;99.90;;;;;;4227414;28;19908;-62
2022/08/17 07:44:46;;;;;;;;;;;27.80;99.90;;;;;;4226476;28;19973;-64
2022/08/17 07:49:08;;;;;;;;;;;27.80;99.90;;;;;;4228323;28;19956;-63
2022/08/17 07:51:17;;;;;;;;;;;28.00;99.90;;;;;;4228284;28;19907;-62
2022/08/17 07:53:22;;;;;;;;;;;28.10;99.80;;;;;;4227799;28;20309;-63
2022/08/17 07:55:30;;;;;;;;;;;28.50;99.80;;;;;;4228646;28;19907;-63
2022/08/17 07:57:32;;;;;;;;;;;28.80;99.20;;;;;;4227302;28;20365;-64
2022/08/17 07:59:34;;;;;;;;;;;29.00;98.70;;;;;;4228747;28;19916;-63
2022/08/17 08:01:36;;;;;;;;;;;29.20;97.90;;;;;;4227466;28;19956;-64
2022/08/17 08:03:41;;;;;;;;;;;29.00;97.20;;;;;;4228667;28;19908;-63
2022/08/17 08:05:53;;;;;;;;;;;29.10;97.00;;;;;;4227573;28;19916;-64
2022/08/17 08:07:54;;;;;;;;;;;29.30;97.60;;;;;;4228744;28;19911;-64
2022/08/17 08:10:00;;;;;;;;;;;29.60;98.00;;;;;;4227574;28;19911;-63
2022/08/17 08:12:20;;;;;;;;;;;29.70;96.20;;;;;;4228161;28;19953;-63
2022/08/17 08:14:23;;;;;;;;;;;29.80;97.00;;;;;;4227918;28;20364;-64
2022/08/17 08:16:27;;;;;;;;;;;29.50;96.20;;;;;;4227054;28;19904;-63
2022/08/17 08:18:31;;;;;;;;;;;29.50;96.10;;;;;;4227242;28;21530;-63
2022/08/17 08:20:51;;;;;;;;;;;29.70;96.50;;;;;;4228639;28;19911;-63
2022/08/17 08:23:17;;;;;;;;;;;29.40;96.40;;;;;;4227188;28;20365;-63
2022/08/17 08:25:24;;;;;;;;;;;29.20;97.00;;;;;;4228482;28;19969;-64
2022/08/17 08:27:37;;;;;;;;;;;29.20;96.50;;;;;;4227268;28;19962;-63
2022/08/17 08:29:38;;;;;;;;;;;29.20;96.60;;;;;;4228400;28;19911;-63
2022/08/17 08:31:45;;;;;;;;;;;29.30;96.30;;;;;;4227379;28;19999;-63
2022/08/17 08:34:07;;;;;;;;;;;29.30;96.30;;;;;;4228372;28;19903;-63
2022/08/17 08:36:27;;;;;;;;;;;29.20;96.80;;;;;;4216456;28;20388;-63
2022/08/17 08:38:36;;;;;;;;;;;29.20;96.60;;;;;;4228353;28;19904;-63
2022/08/17 08:40:55;;;;;;;;;;;29.10;96.20;;;;;;4225731;28;19957;-64
2022/08/17 08:42:59;;;;;;;;;;;29.20;96.40;;;;;;4228246;28;20305;-65
2022/08/17 08:45:18;;;;;;;;;;;29.10;97.10;;;;;;4227774;28;20273;-64
2022/08/17 08:47:40;;;;;;;;;;;28.90;96.60;;;;;;4228021;28;19960;-63
2022/08/17 08:49:47;;;;;;;;;;;29.00;96.90;;;;;;4225840;28;19961;-63
2022/08/17 08:51:54;;;;;;;;;;;28.70;96.80;;;;;;4227819;28;19911;-64
2022/08/17 08:53:58;;;;;;;;;;;28.70;97.70;;;;;;4227185;28;19908;-63
2022/08/17 08:55:58;;;;;;;;;;;28.80;97.00;;;;;;4228131;28;20432;-63
2022/08/17 08:58:03;;;;;;;;;;;28.70;97.30;;;;;;4227133;28;19954;-63
2022/08/17 09:00:11;;;;;;;;;;;28.50;97.20;;;;;;4229653;28;20325;-63
2022/08/17 09:02:12;;;;;;;;;;;28.40;97.60;;;;;;4230451;28;20407;-63
2022/08/17 09:04:34;;;;;;;;;;;28.70;98.00;;;;;;4231222;28;19907;-63
2022/08/17 09:06:46;;;;;;;;;;;28.80;97.70;;;;;;4229884;28;19949;-64
2022/08/17 09:09:02;;;;;;;;;;;28.90;97.80;;;;;;4231105;28;19908;-63
2022/08/17 09:11:03;;;;;;;;;;;29.10;97.30;;;;;;4230070;28;19904;-63
2022/08/17 09:13:13;;;;;;;;;;;29.00;97.30;;;;;;4231477;28;20321;-64
2022/08/17 09:15:17;;;;;;;;;;;28.80;97.50;;;;;;4230262;28;19903;-63
2022/08/17 09:17:20;;;;;;;;;;;28.80;98.00;;;;;;4231086;28;20614;-63
2022/08/17 09:19:29;;;;;;;;;;;28.90;98.00;;;;;;4229644;28;19904;-63
2022/08/17 09:21:37;;;;;;;;;;;29.00;97.80;;;;;;4230948;28;19904;-63
2022/08/17 09:23:41;;;;;;;;;;;28.90;98.00;;;;;;4229940;28;19933;-63
2022/08/17 09:25:48;;;;;;;;;;;28.90;97.80;;;;;;4230993;28;19919;-63
2022/08/17 09:27:58;;;;;;;;;;;28.90;97.90;;;;;;4229887;28;19903;-63
2022/08/17 09:30:01;;;;;;;;;;;29.00;98.00;;;;;;4231182;28;19957;-63
2022/08/17 09:32:13;;;;;;;;;;;29.10;97.60;;;;;;4229911;28;19949;-63
2022/08/17 09:34:15;;;;;;;;;;;29.10;98.20;;;;;;4230924;28;20423;-63
2022/08/17 09:36:24;;;;;;;;;;;29.00;98.00;;;;;;4229626;28;20328;-63
2022/08/17 09:38:28;;;;;;;;;;;28.90;97.50;;;;;;4229332;28;19976;-64
2022/08/17 09:40:33;;;;;;;;;;;28.80;97.90;;;;;;4229694;28;19908;-63
2022/08/17 09:42:41;;;;;;;;;;;28.60;98.10;;;;;;4230944;28;19907;-63
2022/08/17 09:44:52;;;;;;;;;;;28.80;98.30;;;;;;4229699;28;20293;-64
2022/08/17 09:47:12;;;;;;;;;;;28.90;97.90;;;;;;4230764;28;19907;-64
2022/08/17 09:49:33;;;;;;;;;;;28.80;97.90;;;;;;4229535;28;19907;-64
2022/08/17 09:51:38;;;;;;;;;;;28.80;97.80;;;;;;4230253;28;19912;-63
2022/08/17 09:53:40;;;;;;;;;;;28.70;98.10;;;;;;4229440;28;20351;-63
2022/08/17 09:55:43;;;;;;;;;;;28.70;98.00;;;;;;4230506;28;19908;-63
2022/08/17 09:58:04;;;;;;;;;;;28.30;98.00;;;;;;4229446;28;19903;-64
2022/08/17 10:00:12;;;;;;;;;;;27.80;98.60;;;;;;4230577;28;19911;-64
2022/08/17 10:02:28;;;;;;;;;;;27.30;99.40;;;;;;4229083;28;20261;-63
2022/08/17 10:04:42;;;;;;;;;;;27.00;99.90;;;;;;4230216;28;20421;-63
2022/08/17 10:06:50;;;;;;;;;;;27.00;99.90;;;;;;4229211;28;19911;-63
2022/08/17 10:08:56;;;;;;;;;;;27.10;99.90;;;;;;4230481;28;19911;-64
2022/08/17 10:11:15;;;;;;;;;;;27.20;99.90;;;;;;4228327;28;19904;-63
2022/08/17 10:13:22;;;;;;;;;;;27.00;99.90;;;;;;4230129;28;19908;-63
2022/08/17 10:15:32;;;;;;;;;;;27.10;99.90;;;;;;4229481;28;20427;-63
2022/08/17 10:17:39;;;;;;;;;;;27.00;99.90;;;;;;4230265;28;19968;-63
2022/08/17 10:19:45;;;;;;;;;;;26.90;99.90;;;;;;4229024;28;19911;-63
2022/08/17 10:26:30;;;;;;;;;;;26.60;99.90;;;;;;4230775;28;19965;-62
2022/08/17 10:28:38;;;;;;;;;;;26.80;99.90;;;;;;4228927;28;20416;-62
2022/08/17 10:30:45;;;;;;;;;;;27.10;99.90;;;;;;4229949;28;19904;-65
2022/08/17 10:32:46;;;;;;;;;;;27.20;99.40;;;;;;4229031;28;19911;-66
2022/08/17 10:34:49;;;;;;;;;;;27.20;99.20;;;;;;4230019;28;20339;-63
2022/08/17 10:36:58;;;;;;;;;;;27.40;99.60;;;;;;4228761;27;19908;-63
2022/08/17 10:39:18;;;;;;;;;;;27.50;99.20;;;;;;4229732;28;19965;-65
2022/08/17 10:41:25;;;;;;;;;;;27.60;98.70;;;;;;4228259;28;20337;-63
2022/08/17 10:44:01;;;;;;;;;;;27.80;98.80;;;;;;4229633;28;19937;-63
2022/08/17 10:46:10;;;;;;;;;;;28.00;98.70;;;;;;4176683;28;19943;-63
2022/08/17 10:48:23;;;;;;;;;;;28.00;98.20;;;;;;4209405;28;20355;-63
2022/08/17 10:50:41;;;;;;;;;;;28.00;98.40;;;;;;4228726;28;20008;-64
2022/08/17 10:52:42;;;;;;;;;;;28.10;98.00;;;;;;4229074;28;20372;-64
2022/08/17 10:54:47;;;;;;;;;;;27.90;97.60;;;;;;4228641;28;19939;-63
2022/08/17 10:56:52;;;;;;;;;;;28.00;97.70;;;;;;4229844;28;20406;-63
2022/08/17 10:58:54;;;;;;;;;;;28.20;97.60;;;;;;4228579;28;20317;-64
2022/08/17 11:00:56;;;;;;;;;;;28.30;97.20;;;;;;4229368;28;20339;-63
2022/08/17 11:02:58;;;;;;;;;;;28.40;96.60;;;;;;4228353;28;19957;-63
2022/08/17 11:04:59;;;;;;;;;;;28.30;96.30;;;;;;4229496;28;19915;-63
2022/08/17 11:07:11;;;;;;;;;;;28.20;96.00;;;;;;4227909;28;19949;-63
2022/08/17 11:09:15;;;;;;;;;;;28.10;95.90;;;;;;4229261;28;19949;-65
2022/08/17 11:11:19;;;;;;;;;;;28.10;95.70;;;;;;4228468;28;19965;-66
2022/08/17 11:13:22;;;;;;;;;;;28.10;95.80;;;;;;4229545;28;19953;-63
2022/08/17 11:15:23;;;;;;;;;;;28.10;95.70;;;;;;4228802;28;20363;-63
2022/08/17 11:17:34;;;;;;;;;;;28.20;96.10;;;;;;4228959;28;19907;-64
2022/08/17 11:19:34;;;;;;;;;;;28.50;96.00;;;;;;4228142;28;19904;-64
2022/08/17 11:21:46;;;;;;;;;;;28.60;96.00;;;;;;4228598;28;20386;-63
2022/08/17 11:23:47;;;;;;;;;;;28.80;95.50;;;;;;4228053;28;20352;-63
2022/08/17 11:25:53;;;;;;;;;;;28.70;95.20;;;;;;4228550;28;20018;-64
2022/08/17 11:28:03;;;;;;;;;;;28.70;95.10;;;;;;4228064;28;20329;-63
2022/08/17 11:30:10;;;;;;;;;;;28.50;95.60;;;;;;4228689;28;19912;-63
2022/08/17 11:32:27;;;;;;;;;;;28.30;95.80;;;;;;4228475;28;20279;-64
2022/08/17 11:34:30;;;;;;;;;;;28.30;96.30;;;;;;4228566;28;19953;-64
2022/08/17 11:36:44;;;;;;;;;;;28.40;96.00;;;;;;4228633;28;20341;-64
2022/08/17 11:38:57;;;;;;;;;;;28.30;96.20;;;;;;4228408;28;19908;-65
2022/08/17 11:41:07;;;;;;;;;;;28.30;96.00;;;;;;4228143;28;20304;-64
2022/08/17 11:43:22;;;;;;;;;;;28.20;96.10;;;;;;4228338;28;19911;-63
2022/08/17 11:45:53;;;;;;;;;;;28.30;96.10;;;;;;4228300;28;19915;-63
2022/08/17 11:52:52;;;;;;;;;;;28.70;95.90;;;;;;4228948;28;20270;-63
2022/08/17 11:54:53;;;;;;;;;;;28.70;95.50;;;;;;4226622;28;19943;-63
2022/08/17 11:56:55;;;;;;;;;;;28.60;95.70;;;;;;4228811;28;19907;-63
2022/08/17 11:58:57;;;;;;;;;;;28.60;96.00;;;;;;4227691;28;19904;-63
2022/08/17 12:00:59;;;;;;;;;;;28.70;95.90;;;;;;4228699;28;19904;-63
2022/08/17 12:03:21;;;;;;;;;;;28.80;96.00;;;;;;4227475;28;19949;-63
2022/08/17 12:05:26;;;;;;;;;;;28.90;95.80;;;;;;4228463;28;19960;-63
2022/08/17 12:07:30;;;;;;;;;;;29.00;95.10;;;;;;4227209;28;19904;-63
2022/08/17 12:09:33;;;;;;;;;;;28.90;95.60;;;;;;4226767;28;19911;-62
2022/08/17 12:11:52;;;;;;;;;;;28.80;95.50;;;;;;4227626;28;19907;-63
2022/08/17 12:13:56;;;;;;;;;;;28.70;94.80;;;;;;4228735;28;19933;-63
2022/08/17 12:15:57;;;;;;;;;;;28.70;95.20;;;;;;4225879;28;19904;-63
2022/08/17 12:17:58;;;;;;;;;;;28.80;95.80;;;;;;4228368;28;20424;-62
2022/08/17 12:20:11;;;;;;;;;;;28.80;95.90;;;;;;4227630;28;19949;-62
2022/08/17 12:22:16;;;;;;;;;;;28.90;95.40;;;;;;4227701;28;19916;-62
2022/08/17 12:24:30;;;;;;;;;;;28.90;95.40;;;;;;4227411;28;19908;-63
2022/08/17 12:26:32;;;;;;;;;;;29.00;95.40;;;;;;4227924;28;19965;-62
2022/08/17 12:28:34;;;;;;;;;;;29.10;94.50;;;;;;4227084;28;19952;-61
2022/08/17 12:30:36;;;;;;;;;;;29.10;94.50;;;;;;4227827;28;19916;-62